Terminal Aerodrome Forecast
Issued by NWS

Home | Current Version | Previous Version | Text Only | Print | Product List | Glossary On
Versions: 1 2 3 4 5 6 7 8 9 10 11 12 13 14 15
000
FTUS45 KLKN 212320
TAFWMC
TAF
KWMC 212320Z 2200/2224 19010KT P6SM BKN060
     FM220300 17012G18KT 6SM -SHSN SCT030 OVC040
      TEMPO 2205/2209 3SM -SN BKN030
     FM221100 19009KT P6SM VCSH SCT025 OVC035
     FM221800 25007KT P6SM FEW030 BKN040=

USA.gov is the U.S. government's official web portal to all federal, state and local government web resources and services.